UA5072 / N431SW 7700 Squawk Report (27th of June, 2020)

Aircraft CRJ2 Reg No. N431SW Age N/A
Model Regional-Jet Jet engines 2 First flight 07-01
Registered 16-08-01 Rollout 07-01 Delivered 16-08-01
Construction No. 7536 Line No. N/A Series 200LR
ADSHEX A5287A Airline name Delta Connection Owner SkyWest Airlines
Airfield based Salt Lake City Int'l~UT~N First tracked N/A

Flight history for N431SW

Time Lat Lon Altitude Heading Speed Vertical Rate
2020-06-27 05:05:11 GMT 34.649895 -112.426208 0 317 8 0
2020-06-27 05:05:04 GMT 34.649727 -112.426018 0 320 8 0
2020-06-27 05:04:54 GMT 34.649437 -112.425659 0 312 9 0
2020-06-27 05:04:17 GMT 34.654037 -112.419960 4,825 222 133 -64
2020-06-27 05:04:08 GMT 34.658001 -112.415833 4,825 222 133 -64
2020-06-27 05:03:59 GMT 34.662048 -112.411491 4,900 222 143 -704
2020-06-27 05:03:50 GMT 34.666901 -112.406281 4,975 223 142 -384
2020-06-27 05:03:39 GMT 34.672073 -112.400673 5,075 221 138 -768
2020-06-27 05:03:28 GMT 34.677200 -112.395294 5,225 222 138 -768
2020-06-27 05:03:17 GMT 34.682648 -112.389519 5,400 222 141 -1216
2020-06-27 05:03:07 GMT 34.687775 -112.383972 5,600 222 143 -1024
2020-06-27 05:02:56 GMT 34.692917 -112.378525 5,725 222 144 -768
2020-06-27 05:02:46 GMT 34.698395 -112.372650 5,850 221 145 -960
2020-06-27 05:02:35 GMT 34.703751 -112.366989 6,000 222 146 -896
2020-06-27 05:02:24 GMT 34.709118 -112.361359 6,150 222 145 -832
2020-06-27 05:02:14 GMT 34.714607 -112.355515 6,275 222 146 -896
2020-06-27 05:02:03 GMT 34.720150 -112.349564 6,450 222 148 -960
2020-06-27 05:01:52 GMT 34.725449 -112.343895 6,600 222 148 -1152
2020-06-27 05:01:42 GMT 34.731136 -112.337891 6,800 222 148 -1152
2020-06-27 05:01:31 GMT 34.736435 -112.332176 6,975 222 148 -1152
2020-06-27 05:01:20 GMT 34.742027 -112.326218 7,175 222 145 -1152
2020-06-27 05:01:10 GMT 34.747429 -112.320389 7,350 222 148 -1152
2020-06-27 05:00:58 GMT 34.753006 -112.314354 7,525 222 159 -1088
2020-06-27 05:00:47 GMT 34.759254 -112.307678 7,675 222 172 -896
2020-06-27 05:00:38 GMT 34.765778 -112.300842 7,775 222 184 -256
2020-06-27 05:00:27 GMT 34.772800 -112.293381 7,775 222 203 448
2020-06-27 05:00:17 GMT 34.780807 -112.284851 7,725 222 223 192
2020-06-27 05:00:06 GMT 34.789352 -112.275681 7,750 222 239 -576
2020-06-27 04:59:54 GMT 34.798450 -112.265968 7,900 222 248 -1472
2020-06-27 04:59:45 GMT 34.807667 -112.256187 8,150 222 251 -1408
2020-06-27 04:59:34 GMT 34.816837 -112.246452 8,375 222 254 -1408
2020-06-27 04:59:22 GMT 34.826473 -112.236214 8,575 222 257 -1280
2020-06-27 04:59:13 GMT 34.836018 -112.226089 8,775 222 259 -960
2020-06-27 04:59:02 GMT 34.845421 -112.216019 8,825 222 264 -64
2020-06-27 04:58:50 GMT 34.855755 -112.205147 8,850 221 271 -128
2020-06-27 04:58:41 GMT 34.866089 -112.194733 8,925 219 275 -896
2020-06-27 04:58:30 GMT 34.877586 -112.184258 9,150 215 277 -1280
2020-06-27 04:58:18 GMT 34.889145 -112.176292 9,350 204 279 -1280
2020-06-27 04:58:09 GMT 34.901825 -112.171143 9,550 195 281 -1216
2020-06-27 04:57:58 GMT 34.916180 -112.166466 9,750 196 280 -1024
2020-06-27 04:57:46 GMT 34.929401 -112.162003 9,850 196 277 -256
2020-06-27 04:57:37 GMT 34.942337 -112.157578 9,850 197 274 0
2020-06-27 04:57:26 GMT 34.954971 -112.153030 9,850 197 271 0
2020-06-27 04:57:14 GMT 34.968319 -112.148041 9,850 198 271 0
2020-06-27 04:57:05 GMT 34.980843 -112.143173 9,850 199 275 0
2020-06-27 04:56:54 GMT 34.994110 -112.138084 9,850 194 280 64
2020-06-27 04:56:42 GMT 35.007614 -112.134819 9,850 191 286 0
2020-06-27 04:56:33 GMT 35.021805 -112.131737 9,850 191 290 -64
2020-06-27 04:56:22 GMT 35.035629 -112.128708 9,875 190 288 -64
2020-06-27 04:56:11 GMT 35.049454 -112.125793 9,875 190 282 -64
2020-06-27 04:56:01 GMT 35.063461 -112.122818 9,950 190 276 -768
2020-06-27 04:55:50 GMT 35.077240 -112.119965 10,200 190 281 -1984
2020-06-27 04:55:39 GMT 35.090519 -112.117142 10,500 191 284 -1792
2020-06-27 04:55:28 GMT 35.105255 -112.113800 10,775 191 290 -1344
2020-06-27 04:55:17 GMT 35.120171 -112.110268 10,850 192 303 -64
2020-06-27 04:55:06 GMT 35.133591 -112.107124 10,900 192 319 -512
2020-06-27 04:54:57 GMT 35.149361 -112.103294 11,075 192 331 -1792
2020-06-27 04:54:46 GMT 35.165817 -112.099220 11,525 192 334 -2880
2020-06-27 04:54:30 GMT 35.188465 -112.093391 12,150 193 349 -2944
2020-06-27 04:54:25 GMT 35.198334 -112.090813 12,450 193 360 -3008
2020-06-27 04:54:14 GMT 35.216488 -112.085899 13,000 196 373 -3840
2020-06-27 04:54:03 GMT 35.233658 -112.077995 13,725 210 384 -4800
2020-06-27 04:53:34 GMT 35.268581 -112.029869 16,450 242 403 -6336
2020-06-27 04:53:30 GMT 35.270737 -112.023239 16,750 250 407 -6336
2020-06-27 04:53:21 GMT 35.277424 -112.001411 17,775 250 410 -6528
2020-06-27 04:53:09 GMT 35.284470 -111.978210 18,900 250 410 -6784
2020-06-27 04:53:00 GMT 35.291565 -111.955200 20,075 250 409 -7232
2020-06-27 04:52:46 GMT 35.300262 -111.926704 21,675 251 404 -7616
2020-06-27 04:52:38 GMT 35.305775 -111.908081 22,725 251 400 -7232
2020-06-27 04:52:30 GMT 35.310928 -111.890427 23,675 251 397 -7104
2020-06-27 04:52:27 GMT 35.312107 -111.886398 23,875 251 396 -7040
2020-06-27 04:52:17 GMT 35.318298 -111.864487 25,050 252 393 -6720
2020-06-27 04:52:08 GMT 35.323288 -111.846657 25,925 250 391 -4544
2020-06-27 04:52:05 GMT 35.325466 -111.838951 26,325 251 389 -6336
2020-06-27 04:51:59 GMT 35.328415 -111.828751 26,800 251 388 -5888
2020-06-27 04:51:54 GMT 35.331619 -111.817589 27,300 251 388 -5376
2020-06-27 04:51:44 GMT 35.338177 -111.795471 28,200 251 389 -4992
2020-06-27 04:51:33 GMT 35.344711 -111.773705 28,850 250 391 -4544
2020-06-27 04:51:27 GMT 35.348831 -111.760880 29,425 246 394 -4352
2020-06-27 04:51:23 GMT 35.351864 -111.752518 29,725 243 395 -4160
2020-06-27 04:51:14 GMT 35.359917 -111.735985 30,275 234 400 -3264
2020-06-27 04:51:11 GMT 35.362850 -111.731247 30,400 231 402 -2880
2020-06-27 04:51:05 GMT 35.372086 -111.718941 30,750 224 410 -3072
2020-06-27 04:51:02 GMT 35.375656 -111.714767 30,875 224 413 -2560
2020-06-27 04:50:50 GMT 35.390781 -111.697357 31,325 224 417 -2432
2020-06-27 04:50:41 GMT 35.405537 -111.680229 31,725 224 421 -2176
2020-06-27 04:50:32 GMT 35.417404 -111.666580 31,950 224 427 -1152
2020-06-27 04:50:29 GMT 35.420837 -111.662636 31,975 224 430 -512
2020-06-27 04:50:23 GMT 35.430580 -111.651421 32,000 224 431 0
2020-06-27 04:50:20 GMT 35.435795 -111.645401 32,000 224 431 0
2020-06-27 04:50:11 GMT 35.447762 -111.631668 32,000 224 432 0
2020-06-27 04:50:08 GMT 35.452560 -111.626129 32,000 224 432 64
2020-06-27 04:50:01 GMT 35.463043 -111.614059 32,000 224 432 -64
2020-06-27 04:49:57 GMT 35.468033 -111.608391 32,000 224 432 -64
2020-06-27 04:49:51 GMT 35.477741 -111.597137 32,000 224 431 -64
2020-06-27 04:49:48 GMT 35.482544 -111.591621 32,000 224 431 0
2020-06-27 04:49:40 GMT 35.493755 -111.578728 32,000 224 431 64
2020-06-27 04:49:36 GMT 35.499115 -111.572517 32,000 224 431 64
2020-06-27 04:49:29 GMT 35.508682 -111.561470 32,000 224 430 64
2020-06-27 04:49:25 GMT 35.513771 -111.555641 32,000 224 431 64
2020-06-27 04:49:19 GMT 35.523640 -111.544250 32,000 224 431 0
2020-06-27 04:49:14 GMT 35.531342 -111.535378 32,000 224 431 0
2020-06-27 04:49:11 GMT 35.535690 -111.530342 32,000 224 431 0
2020-06-27 04:49:08 GMT 35.538895 -111.526627 32,000 224 431 0
2020-06-27 04:49:05 GMT 35.544262 -111.520409 32,000 224 431 0
2020-06-27 04:48:57 GMT 35.554180 -111.509010 32,000 224 431 0
2020-06-27 04:48:54 GMT 35.559540 -111.502815 32,000 224 431 0
2020-06-27 04:48:47 GMT 35.569427 -111.491379 32,000 224 432 0
2020-06-27 04:48:44 GMT 35.575687 -111.484177 32,000 224 431 0
2020-06-27 04:48:37 GMT 35.584393 -111.474121 32,000 224 431 0
2020-06-27 04:48:33 GMT 35.591095 -111.466347 32,000 224 431 0
2020-06-27 04:48:28 GMT 35.598495 -111.457787 32,000 224 431 64
2020-06-27 04:48:25 GMT 35.602844 -111.452751 32,000 224 431 64
2020-06-27 04:48:21 GMT 35.607193 -111.447716 32,000 224 432 0
2020-06-27 04:48:17 GMT 35.613441 -111.440460 32,000 224 431 0
2020-06-27 04:48:14 GMT 35.617630 -111.435585 32,000 224 431 0
2020-06-27 04:48:11 GMT 35.623260 -111.429008 32,000 224 431 0
2020-06-27 04:48:04 GMT 35.633286 -111.417336 32,000 224 432 64
2020-06-27 04:48:01 GMT 35.637459 -111.412468 32,000 224 432 64
2020-06-27 04:47:55 GMT 35.645142 -111.403481 32,000 224 432 0
2020-06-27 04:47:52 GMT 35.648941 -111.399139 32,000 224 432 0
2020-06-27 04:47:49 GMT 35.653290 -111.394043 32,000 224 432 0
2020-06-27 04:47:43 GMT 35.663773 -111.381912 32,000 224 432 -64
2020-06-27 04:47:40 GMT 35.668278 -111.376709 32,000 224 432 -64
2020-06-27 04:47:32 GMT 35.678425 -111.364899 32,000 224 432 0
2020-06-27 04:47:29 GMT 35.684418 -111.358047 32,000 224 431 0
2020-06-27 04:47:22 GMT 35.694580 -111.346207 32,000 224 431 0
2020-06-27 04:47:17 GMT 35.699375 -111.340652 32,000 224 431 0
2020-06-27 04:47:11 GMT 35.708920 -111.329544 32,000 224 432 64
2020-06-27 04:47:04 GMT 35.720123 -111.316566 32,000 224 432 0
2020-06-27 04:47:01 GMT 35.724472 -111.311531 32,000 224 431 0
2020-06-27 04:46:57 GMT 35.730560 -111.304436 32,000 224 431 0
2020-06-27 04:46:52 GMT 35.736328 -111.297684 32,000 224 431 0
2020-06-27 04:46:49 GMT 35.739967 -111.293434 32,000 224 431 0
2020-06-27 04:46:45 GMT 35.746490 -111.285835 32,000 224 432 0
2020-06-27 04:46:40 GMT 35.754593 -111.276398 32,000 224 431 0
2020-06-27 04:46:35 GMT 35.761707 -111.268127 32,000 224 431 0
2020-06-27 04:46:29 GMT 35.769928 -111.258492 32,000 224 431 64
2020-06-27 04:46:22 GMT 35.781784 -111.244637 32,000 224 431 0
2020-06-27 04:46:18 GMT 35.785126 -111.240784 32,000 224 430 0
2020-06-27 04:46:11 GMT 35.794994 -111.229271 32,000 224 431 0
2020-06-27 04:46:07 GMT 35.800598 -111.222725 32,000 224 430 0
2020-06-27 04:45:57 GMT 35.816360 -111.204315 32,000 224 430 0
2020-06-27 04:45:46 GMT 35.831223 -111.186905 32,000 224 430 0
2020-06-27 04:45:36 GMT 35.845783 -111.169838 32,000 224 430 0
2020-06-27 04:45:26 GMT 35.861378 -111.151604 32,000 224 430 -64
We lost coverage of the aircraft here for a total of 26 minutes
2020-06-27 04:19:29 GMT 38.060577 -108.470879 32,000 226 424 0
2020-06-27 04:19:19 GMT 38.075356 -108.452072 32,000 226 422 0
2020-06-27 04:19:08 GMT 38.090103 -108.433250 32,000 226 423 64
2020-06-27 04:18:57 GMT 38.104980 -108.414253 32,000 226 422 -64
2020-06-27 04:18:48 GMT 38.118484 -108.397018 32,025 226 422 0
2020-06-27 04:18:37 GMT 38.133453 -108.377800 32,000 226 423 128
2020-06-27 04:18:24 GMT 38.152863 -108.352898 32,000 226 424 64
2020-06-27 04:18:16 GMT 38.162361 -108.340721 31,975 226 424 64
2020-06-27 04:18:06 GMT 38.176620 -108.322510 31,975 226 424 -128
2020-06-27 04:17:55 GMT 38.191544 -108.303398 32,025 226 423 -64
2020-06-27 04:17:45 GMT 38.205826 -108.284988 32,000 226 423 64
2020-06-27 04:17:34 GMT 38.220039 -108.266800 32,000 226 423 64
2020-06-27 04:17:24 GMT 38.234329 -108.248413 32,000 226 424 -64
2020-06-27 04:17:13 GMT 38.249039 -108.229416 32,000 226 423 64
2020-06-27 04:17:03 GMT 38.264511 -108.209602 32,000 226 424 64
2020-06-27 04:16:51 GMT 38.278416 -108.191628 32,000 226 424 -64
2020-06-27 04:16:42 GMT 38.292755 -108.173241 32,000 226 424 -64
2020-06-27 04:16:31 GMT 38.307724 -108.153915 32,000 226 423 0
2020-06-27 04:16:20 GMT 38.322174 -108.135323 32,025 226 423 -128
2020-06-27 04:16:10 GMT 38.337257 -108.115860 32,025 226 422 -64
2020-06-27 04:15:58 GMT 38.351269 -108.097763 32,000 226 422 192
2020-06-27 04:15:49 GMT 38.366074 -108.078720 32,000 226 421 0
2020-06-27 04:15:37 GMT 38.381901 -108.058296 32,000 226 419 -64
2020-06-27 04:15:25 GMT 38.396439 -108.039551 32,000 226 417 128
2020-06-27 04:15:17 GMT 38.409042 -108.023308 32,000 226 415 0
2020-06-27 04:13:17 GMT 38.558521 -107.815918 31,550 232 393 704
2020-06-27 04:13:11 GMT 38.566296 -107.803650 31,475 232 393 960
2020-06-27 04:13:00 GMT 38.578865 -107.783752 31,250 232 395 1280
2020-06-27 04:12:48 GMT 38.591248 -107.764099 31,050 232 396 1024
2020-06-27 04:12:39 GMT 38.604328 -107.743286 30,850 232 398 1344
2020-06-27 04:12:26 GMT 38.616531 -107.723991 30,650 232 400 576
2020-06-27 04:12:16 GMT 38.629028 -107.704170 30,600 232 398 448
2020-06-27 04:12:03 GMT 38.643665 -107.680969 30,500 232 396 576
2020-06-27 04:11:55 GMT 38.653069 -107.666077 30,475 232 394 192
2020-06-27 04:11:44 GMT 38.666801 -107.644348 30,400 232 391 448
2020-06-27 04:11:34 GMT 38.677139 -107.627983 30,275 232 391 1344
2020-06-27 04:11:20 GMT 38.693527 -107.601952 29,975 232 395 1152
2020-06-27 04:11:12 GMT 38.701900 -107.588684 29,875 232 396 704
2020-06-27 04:10:50 GMT 38.727768 -107.547615 29,625 232 396 640
2020-06-27 04:10:40 GMT 38.737885 -107.531494 29,500 232 396 1088
2020-06-27 04:10:31 GMT 38.750175 -107.511902 29,300 232 399 1152
2020-06-27 04:10:20 GMT 38.762699 -107.492004 29,150 231 400 384
2020-06-27 04:10:06 GMT 38.778763 -107.466530 29,075 232 396 768
2020-06-27 04:09:59 GMT 38.786819 -107.453690 28,925 232 396 1600
2020-06-27 04:09:48 GMT 38.798126 -107.435722 28,700 232 397 1472
2020-06-27 04:09:45 GMT 38.803524 -107.427063 28,650 232 399 704
2020-06-27 04:09:29 GMT 38.820740 -107.399597 28,450 232 399 896
2020-06-27 04:09:24 GMT 38.827469 -107.388908 28,400 232 398 512
2020-06-27 04:09:17 GMT 38.835800 -107.375717 28,350 232 397 512
2020-06-27 04:09:13 GMT 38.839233 -107.370277 28,325 232 396 512
2020-06-27 04:09:06 GMT 38.848022 -107.356369 28,275 232 396 448
2020-06-27 04:09:03 GMT 38.851456 -107.350876 28,250 232 396 512
2020-06-27 04:08:52 GMT 38.863129 -107.332306 28,150 232 394 576
2020-06-27 04:08:42 GMT 38.875309 -107.312866 28,075 232 391 512
2020-06-27 04:08:34 GMT 38.884918 -107.297554 28,000 232 390 512
2020-06-27 04:08:30 GMT 38.887894 -107.292839 27,975 232 389 512
2020-06-27 04:08:21 GMT 38.899982 -107.273621 27,900 232 388 512
2020-06-27 04:08:10 GMT 38.912315 -107.254028 27,800 232 386 512
2020-06-27 04:08:02 GMT 38.921070 -107.240173 27,725 232 384 512
2020-06-27 04:07:58 GMT 38.923645 -107.236053 27,700 232 384 512
2020-06-27 04:07:49 GMT 38.935593 -107.216949 27,625 232 382 512
2020-06-27 04:07:40 GMT 38.944244 -107.203217 27,550 232 382 576
2020-06-27 04:07:37 GMT 38.947128 -107.198616 27,525 232 382 512
2020-06-27 04:07:28 GMT 38.958572 -107.180168 27,425 232 382 576
2020-06-27 04:07:16 GMT 38.970833 -107.160400 27,325 232 383 576
2020-06-27 04:07:09 GMT 38.979725 -107.146118 27,250 232 385 576
2020-06-27 04:07:06 GMT 38.982613 -107.141479 27,225 232 385 512
2020-06-27 04:06:58 GMT 38.991688 -107.126770 27,150 232 386 576
2020-06-27 04:06:46 GMT 39.003433 -107.107925 27,075 232 387 512
2020-06-27 04:06:36 GMT 39.015060 -107.089111 27,000 232 389 512
2020-06-27 04:06:25 GMT 39.028793 -107.067085 26,875 232 390 512
2020-06-27 04:06:15 GMT 39.039871 -107.049232 26,800 232 391 448
2020-06-27 04:06:03 GMT 39.051590 -107.030304 26,725 232 392 448
2020-06-27 04:05:54 GMT 39.063194 -107.011414 26,625 232 393 448
2020-06-27 04:05:43 GMT 39.075390 -106.991577 26,600 232 395 64
2020-06-27 04:05:32 GMT 39.087753 -106.971550 26,575 232 394 128
2020-06-27 04:05:22 GMT 39.100067 -106.951843 26,575 232 393 128
2020-06-27 04:05:11 GMT 39.112289 -106.932022 26,550 232 392 128
2020-06-27 04:04:59 GMT 39.124237 -106.912674 26,525 232 392 576
2020-06-27 04:04:50 GMT 39.136185 -106.893333 26,425 232 393 192
2020-06-27 04:04:38 GMT 39.149689 -106.871239 26,400 233 393 192
2020-06-27 04:04:27 GMT 39.160301 -106.853699 26,350 232 393 256
2020-06-27 04:04:17 GMT 39.172264 -106.834290 26,300 232 392 384
2020-06-27 04:04:07 GMT 39.184570 -106.814339 26,275 232 393 192
2020-06-27 04:03:55 GMT 39.196701 -106.794456 26,250 232 392 192
2020-06-27 04:03:44 GMT 39.208530 -106.775330 26,200 232 390 192
2020-06-27 04:03:35 GMT 39.231293 -106.736572 26,125 246 387 512
2020-06-27 04:03:23 GMT 39.231293 -106.736572 26,100 237 387 448
2020-06-27 04:03:14 GMT 39.241161 -106.715698 26,025 241 387 704
2020-06-27 04:03:03 GMT 39.250214 -106.692413 25,925 246 387 512
2020-06-27 04:03:00 GMT 39.252869 -106.684349 25,900 249 387 512
2020-06-27 04:02:52 GMT 39.256577 -106.671875 25,850 250 387 512
2020-06-27 04:02:49 GMT 39.258362 -106.665779 25,825 250 388 512
2020-06-27 04:02:42 GMT 39.263462 -106.648254 25,750 250 388 576
2020-06-27 04:02:39 GMT 39.265182 -106.642151 25,725 251 389 448
2020-06-27 04:02:29 GMT 39.272186 -106.617599 25,625 250 390 512
2020-06-27 04:02:21 GMT 39.276634 -106.602112 25,575 250 391 704
2020-06-27 04:02:18 GMT 39.278870 -106.594429 25,550 250 391 320
2020-06-27 04:02:09 GMT 39.283356 -106.578728 25,525 250 391 128
2020-06-27 04:02:05 GMT 39.286552 -106.567566 25,525 250 390 64
2020-06-27 04:02:00 GMT 39.289719 -106.556458 25,525 250 389 64
2020-06-27 04:01:56 GMT 39.292648 -106.546265 25,525 250 389 64
2020-06-27 04:01:49 GMT 39.296188 -106.534119 25,500 250 387 0
2020-06-27 04:01:46 GMT 39.298424 -106.526306 25,500 250 388 64
2020-06-27 04:01:38 GMT 39.302765 -106.510902 25,500 250 386 -64
2020-06-27 04:01:34 GMT 39.304962 -106.503075 25,500 250 386 -64
2020-06-27 04:01:28 GMT 39.309361 -106.487793 25,500 251 384 -64
2020-06-27 04:01:25 GMT 39.311325 -106.480682 25,500 251 384 64
2020-06-27 04:01:17 GMT 39.315765 -106.464684 25,500 251 384 64
2020-06-27 04:01:12 GMT 39.318832 -106.453995 25,475 250 382 256
2020-06-27 04:01:07 GMT 39.322220 -106.441994 25,450 250 382 448
2020-06-27 04:01:04 GMT 39.324371 -106.434296 25,425 251 382 832
2020-06-27 04:00:56 GMT 39.328583 -106.419250 25,325 250 384 448
2020-06-27 04:00:47 GMT 39.335243 -106.395813 25,250 250 384 640
2020-06-27 04:00:41 GMT 39.337570 -106.387634 25,200 250 384 640
2020-06-27 04:00:35 GMT 39.341900 -106.372559 25,125 250 386 960
2020-06-27 04:00:30 GMT 39.344925 -106.361984 25,050 250 386 704
2020-06-27 04:00:24 GMT 39.348186 -106.350525 25,025 250 386 64
2020-06-27 04:00:20 GMT 39.350235 -106.343414 25,025 250 385 64
2020-06-27 04:00:14 GMT 39.354843 -106.327209 25,025 251 384 256
2020-06-27 04:00:07 GMT 39.358475 -106.314331 25,000 251 384 192
2020-06-27 04:00:03 GMT 39.361313 -106.304192 25,000 250 383 320
2020-06-27 03:59:58 GMT 39.364243 -106.293922 24,975 250 383 256
2020-06-27 03:59:52 GMT 39.368111 -106.280396 24,950 250 382 -64
2020-06-27 03:59:48 GMT 39.369965 -106.273735 24,950 251 381 64
2020-06-27 03:59:43 GMT 39.373417 -106.261597 24,950 250 379 0
2020-06-27 03:59:36 GMT 39.376907 -106.249268 24,950 250 378 64
2020-06-27 03:59:32 GMT 39.379562 -106.239929 24,925 251 377 192
2020-06-27 03:59:27 GMT 39.382919 -106.227882 24,925 251 375 192
2020-06-27 03:59:22 GMT 39.385803 -106.217789 24,900 251 374 256
2020-06-27 03:59:17 GMT 39.389328 -106.205193 24,850 251 373 512
2020-06-27 03:59:08 GMT 39.393997 -106.188416 24,750 251 372 1216
2020-06-27 03:59:05 GMT 39.395142 -106.184235 24,700 251 374 1792
2020-06-27 03:58:59 GMT 39.399441 -106.168884 24,475 251 377 1856
2020-06-27 03:58:56 GMT 39.401722 -106.160828 24,375 250 378 1600
2020-06-27 03:58:49 GMT 39.404747 -106.150208 24,150 251 380 128
2020-06-27 03:58:44 GMT 39.407822 -106.139275 24,175 251 382 640
2020-06-27 03:58:39 GMT 39.410892 -106.128357 24,150 251 380 128
2020-06-27 03:58:33 GMT 39.414963 -106.113602 24,125 251 379 128
2020-06-27 03:58:28 GMT 39.417175 -106.105713 24,100 251 373 256
2020-06-27 03:58:23 GMT 39.420250 -106.094727 24,100 251 375 192
2020-06-27 03:58:18 GMT 39.423740 -106.082092 24,075 251 371 448
2020-06-27 03:58:14 GMT 39.426498 -106.071861 24,025 252 369 896
2020-06-27 03:58:08 GMT 39.429291 -106.061478 23,925 251 366 1408
2020-06-27 03:58:05 GMT 39.431190 -106.054688 23,825 251 367 1728
2020-06-27 03:58:02 GMT 39.432724 -106.049118 23,750 250 367 2240
2020-06-27 03:57:57 GMT 39.435703 -106.038574 23,550 250 370 2432
2020-06-27 03:57:54 GMT 39.436913 -106.034424 23,475 250 371 2240
2020-06-27 03:57:44 GMT 39.443665 -106.010841 23,175 250 375 1024
2020-06-27 03:57:34 GMT 39.448784 -105.992493 23,050 251 376 1344
2020-06-27 03:57:29 GMT 39.451675 -105.982124 22,875 250 378 3008
2020-06-27 03:57:24 GMT 39.454838 -105.970886 22,625 250 381 3072
2020-06-27 03:57:21 GMT 39.456345 -105.965584 22,325 251 385 512
2020-06-27 03:57:15 GMT 39.460934 -105.949402 22,325 251 385 512
2020-06-27 03:57:11 GMT 39.463394 -105.940506 22,300 251 384 192
2020-06-27 03:57:08 GMT 39.464630 -105.936203 22,300 251 383 128
2020-06-27 03:57:03 GMT 39.467312 -105.926514 22,275 250 382 256
2020-06-27 03:57:00 GMT 39.470478 -105.915405 22,225 250 380 640
2020-06-27 03:56:57 GMT 39.471176 -105.913040 22,225 251 378 384
2020-06-27 03:56:53 GMT 39.473736 -105.903870 22,200 250 378 448
2020-06-27 03:56:49 GMT 39.476669 -105.893517 22,150 251 377 448
2020-06-27 03:56:43 GMT 39.480164 -105.880981 22,100 251 377 896
2020-06-27 03:56:38 GMT 39.482956 -105.870789 22,075 251 376 1152
2020-06-27 03:56:31 GMT 39.487335 -105.855362 21,850 250 378 1216
2020-06-27 03:56:28 GMT 39.489258 -105.848618 21,800 251 377 576
2020-06-27 03:56:20 GMT 39.493515 -105.833328 21,750 251 375 384
2020-06-27 03:56:17 GMT 39.495850 -105.824913 21,725 251 374 576
2020-06-27 03:56:13 GMT 39.497864 -105.817741 21,675 251 372 1088
2020-06-27 03:56:09 GMT 39.499435 -105.812073 21,625 251 372 1152
2020-06-27 03:56:02 GMT 39.503815 -105.796371 21,525 251 372 832
2020-06-27 03:55:59 GMT 39.505253 -105.791138 21,475 251 371 896
2020-06-27 03:55:54 GMT 39.508713 -105.778816 21,400 251 371 960
2020-06-27 03:55:49 GMT 39.511353 -105.769409 21,325 251 371 1024
2020-06-27 03:55:42 GMT 39.515717 -105.753738 21,200 251 371 1216
2020-06-27 03:55:39 GMT 39.517403 -105.747681 21,150 251 371 1344
2020-06-27 03:55:35 GMT 39.519974 -105.738274 21,075 251 372 1088
2020-06-27 03:55:32 GMT 39.521759 -105.732002 20,975 250 372 1024
2020-06-27 03:55:29 GMT 39.523499 -105.725739 20,950 250 372 832
2020-06-27 03:55:23 GMT 39.526386 -105.715454 20,900 251 371 576
2020-06-27 03:55:20 GMT 39.528442 -105.708122 20,875 251 371 576
2020-06-27 03:55:17 GMT 39.530018 -105.702515 20,850 251 370 448
2020-06-27 03:55:14 GMT 39.532394 -105.693726 20,825 251 368 320
2020-06-27 03:55:11 GMT 39.534073 -105.687698 20,700 251 364 832
2020-06-27 03:55:08 GMT 39.535767 -105.681488 20,800 251 366 576
2020-06-27 03:55:03 GMT 39.538586 -105.671448 20,725 251 364 832
2020-06-27 03:55:00 GMT 39.540306 -105.665283 20,700 251 364 896
2020-06-27 03:54:57 GMT 39.541580 -105.660591 20,650 251 363 960
2020-06-27 03:54:53 GMT 39.544189 -105.651161 20,575 251 363 1152
2020-06-27 03:54:50 GMT 39.545380 -105.646851 20,500 251 363 1536
2020-06-27 03:54:46 GMT 39.548355 -105.635994 20,400 251 364 1728
2020-06-27 03:54:43 GMT 39.549820 -105.630676 20,325 250 365 1728
2020-06-27 03:54:40 GMT 39.551239 -105.625725 20,225 248 366 1472
2020-06-27 03:54:37 GMT 39.553528 -105.618225 20,150 248 366 1472
2020-06-27 03:54:34 GMT 39.555344 -105.612549 20,100 247 366 1408
2020-06-27 03:54:29 GMT 39.557968 -105.604706 20,025 247 367 1152
2020-06-27 03:54:25 GMT 39.561035 -105.595390 19,975 247 366 704
2020-06-27 03:54:21 GMT 39.563599 -105.587746 19,950 247 364 256
2020-06-27 03:54:18 GMT 39.566116 -105.580170 19,925 247 361 512
2020-06-27 03:54:15 GMT 39.568130 -105.574196 19,900 247 360 576
2020-06-27 03:54:12 GMT 39.569595 -105.569839 19,875 247 359 768
2020-06-27 03:54:09 GMT 39.571545 -105.564087 19,850 247 359 1152
2020-06-27 03:54:06 GMT 39.574150 -105.556213 19,775 247 358 1600
2020-06-27 03:54:03 GMT 39.576187 -105.550072 19,675 247 359 1856
2020-06-27 03:53:59 GMT 39.578293 -105.543747 19,550 247 360 1856
2020-06-27 03:53:55 GMT 39.581039 -105.535706 19,425 247 360 1408
2020-06-27 03:53:52 GMT 39.583042 -105.529785 19,425 247 360 1408
2020-06-27 03:53:49 GMT 39.585663 -105.522072 19,325 247 360 640
2020-06-27 03:53:45 GMT 39.587860 -105.515320 19,300 248 358 448
2020-06-27 03:53:39 GMT 39.591797 -105.503441 19,275 248 357 576
2020-06-27 03:53:36 GMT 39.593857 -105.497169 19,225 248 356 1088
2020-06-27 03:53:33 GMT 39.595844 -105.491089 19,150 247 355 1280
2020-06-27 03:53:30 GMT 39.597473 -105.486244 19,100 247 355 1216
2020-06-27 03:53:27 GMT 39.599754 -105.479370 18,825 247 353 1408
2020-06-27 03:53:23 GMT 39.601364 -105.474541 18,900 247 353 1472
2020-06-27 03:53:20 GMT 39.604111 -105.466362 18,875 247 353 1408
2020-06-27 03:53:16 GMT 39.606503 -105.459167 18,800 247 353 1344
2020-06-27 03:53:13 GMT 39.608231 -105.453880 18,775 247 353 1344
2020-06-27 03:53:09 GMT 39.610931 -105.445763 18,675 247 353 1216
2020-06-27 03:53:06 GMT 39.613083 -105.439133 18,600 248 351 1216
2020-06-27 03:53:03 GMT 39.614868 -105.433701 18,550 248 350 1280
2020-06-27 03:53:00 GMT 39.616978 -105.427368 18,475 248 350 1536
2020-06-27 03:52:57 GMT 39.618889 -105.421570 18,400 247 349 1536
2020-06-27 03:52:53 GMT 39.621540 -105.413452 18,300 247 350 1408
2020-06-27 03:52:49 GMT 39.624332 -105.404968 18,150 248 347 704
2020-06-27 03:52:43 GMT 39.627590 -105.394958 18,150 248 347 704
2020-06-27 03:52:40 GMT 39.631409 -105.383057 18,075 248 345 960
2020-06-27 03:52:37 GMT 39.631409 -105.383057 18,050 248 345 1024
2020-06-27 03:52:34 GMT 39.632992 -105.378113 18,025 248 344 1152
2020-06-27 03:52:31 GMT 39.634552 -105.373337 17,975 248 343 1280
2020-06-27 03:52:27 GMT 39.637554 -105.364075 17,850 248 342 1792
2020-06-27 03:52:24 GMT 39.639370 -105.358398 17,725 248 343 2368
2020-06-27 03:52:21 GMT 39.641281 -105.352501 17,625 248 343 2560
2020-06-27 03:52:17 GMT 39.643250 -105.346405 17,550 248 344 2432
2020-06-27 03:52:14 GMT 39.645721 -105.338768 17,375 248 346 1856
2020-06-27 03:52:11 GMT 39.647888 -105.332092 17,275 248 346 1664
2020-06-27 03:52:06 GMT 39.650776 -105.323303 17,150 247 346 1408
2020-06-27 03:52:03 GMT 39.652916 -105.316833 17,075 248 344 1344
2020-06-27 03:51:59 GMT 39.654732 -105.311096 17,025 248 345 1280
2020-06-27 03:51:55 GMT 39.657524 -105.302307 16,925 248 343 1152
2020-06-27 03:51:51 GMT 39.659042 -105.297569 16,875 248 343 1088
2020-06-27 03:51:48 GMT 39.661621 -105.289368 16,800 248 342 1152
2020-06-27 03:51:45 GMT 39.663757 -105.282761 16,750 248 341 1152
2020-06-27 03:51:42 GMT 39.665314 -105.277863 16,725 248 340 1216
2020-06-27 03:51:39 GMT 39.666275 -105.274818 16,650 248 339 1600
2020-06-27 03:51:36 GMT 39.668839 -105.266518 16,525 249 338 1920
2020-06-27 03:51:33 GMT 39.669815 -105.263367 16,475 249 338 2112
2020-06-27 03:51:30 GMT 39.672421 -105.255066 16,325 248 339 2688
2020-06-27 03:51:24 GMT 39.675541 -105.245300 16,150 248 340 2752
2020-06-27 03:51:21 GMT 39.677765 -105.238274 15,925 248 342 2752
2020-06-27 03:51:15 GMT 39.681454 -105.226685 15,625 247 345 2304
2020-06-27 03:51:12 GMT 39.683083 -105.221802 15,550 247 344 2112
2020-06-27 03:51:06 GMT 39.686714 -105.211182 15,400 247 345 2048
2020-06-27 03:51:03 GMT 39.688995 -105.204346 15,275 247 345 1856
2020-06-27 03:51:00 GMT 39.691135 -105.197876 15,200 247 345 1536
2020-06-27 03:50:54 GMT 39.694336 -105.188599 15,125 246 344 896
2020-06-27 03:50:51 GMT 39.696350 -105.182800 15,075 246 340 576
2020-06-27 03:50:48 GMT 39.697861 -105.178566 15,000 246 337 512
2020-06-27 03:50:45 GMT 39.700260 -105.171692 15,000 247 334 512
2020-06-27 03:50:42 GMT 39.702263 -105.165833 15,000 247 333 512
2020-06-27 03:50:38 GMT 39.704357 -105.159607 14,975 247 330 512
2020-06-27 03:50:32 GMT 39.708618 -105.146805 14,825 248 324 1408
2020-06-27 03:50:28 GMT 39.710644 -105.140564 14,700 248 322 1536
2020-06-27 03:50:25 GMT 39.712410 -105.134827 14,675 248 321 1536
2020-06-27 03:50:21 GMT 39.714600 -105.128052 14,600 248 319 1152
2020-06-27 03:50:18 GMT 39.716648 -105.121704 14,525 248 317 1088
2020-06-27 03:50:12 GMT 39.719673 -105.112244 14,425 247 313 1024
2020-06-27 03:50:09 GMT 39.721535 -105.106750 14,400 247 311 1024
2020-06-27 03:50:06 GMT 39.723221 -105.101784 14,350 247 310 960
2020-06-27 03:50:03 GMT 39.724655 -105.097534 14,300 246 309 1088
2020-06-27 03:50:00 GMT 39.726791 -105.091270 14,250 247 305 1088
2020-06-27 03:49:57 GMT 39.728004 -105.087769 14,150 247 302 1216
2020-06-27 03:49:54 GMT 39.729679 -105.082764 14,150 247 302 1216
2020-06-27 03:49:51 GMT 39.731449 -105.077454 14,025 247 298 1344
2020-06-27 03:49:47 GMT 39.733932 -105.070015 13,975 247 296 1536
2020-06-27 03:49:44 GMT 39.735825 -105.064331 13,900 251 296 2880
2020-06-27 03:49:41 GMT 39.737320 -105.059929 13,800 247 294 1664
2020-06-27 03:49:38 GMT 39.739269 -105.054321 13,675 247 292 2688
2020-06-27 03:49:35 GMT 39.740295 -105.051270 13,550 247 292 2944
2020-06-27 03:49:32 GMT 39.742218 -105.045479 13,450 247 293 2944
2020-06-27 03:49:29 GMT 39.743591 -105.041237 13,325 248 294 3072
2020-06-27 03:49:25 GMT 39.746017 -105.033775 13,125 249 295 2944
2020-06-27 03:49:21 GMT 39.747482 -105.028763 12,925 251 296 2880
2020-06-27 03:49:18 GMT 39.750000 -105.019325 12,725 253 297 2816
2020-06-27 03:49:15 GMT 39.750000 -105.019325 12,650 254 298 2752
2020-06-27 03:49:12 GMT 39.751610 -105.012329 12,575 254 299 2432
2020-06-27 03:49:08 GMT 39.753052 -105.006104 12,425 254 298 2240
2020-06-27 03:49:04 GMT 39.755100 -104.997192 12,250 254 297 1792
2020-06-27 03:49:01 GMT 39.755676 -104.994606 12,225 255 297 1728
2020-06-27 03:48:58 GMT 39.758011 -104.983978 12,100 255 294 1664
2020-06-27 03:48:55 GMT 39.758011 -104.983978 12,050 255 294 1728

Making use of Plane Finder data

You are free to use the raw flight data, aircraft information and images provided in this report for your own purposes provided the data is correctly attributed to Plane Finder. We ask that you please credit Plane Finder and link to planefinder.net in close proximity to the content.

Optionally one of the following logos (no smaller then 150x24px) can be used and must link to planefinder.net

Embedding the Plane Finder map

You are welcome to embed the Plane Finder playback map on your website to offer visitors a more interactive experience. We suggest using the following HTML code:

<iframe src="//planefinder.net/data/report/UA5072-N431SW-7700-squawk-2020-06-27/map" width="800" height="600" seamless="seamless"></iframe>

Where our data comes from

Plane Finder has a global network of data feeds and antenna radars that receive data broadcast directly from aircraft. The primary technologies used are ADS-B and MLAT. We also show feeds from the FAA and a FLARM glider feed.

Click here to find out more about the Plane Finder network.

How we collect our data